createdAt,value
2019-01-20T00:01:47.474Z,30.37
2019-01-20T00:04:16.409Z,28.50
2019-01-20T00:06:45.429Z,26.25
2019-01-20T00:09:14.436Z,23.70
2019-01-20T00:11:43.458Z,24.95
2019-01-20T00:14:12.460Z,22.22
2019-01-20T00:16:41.478Z,23.75
2019-01-20T00:19:10.481Z,26.40
2019-01-20T00:21:39.498Z,25.30
2019-01-20T00:24:08.421Z,22.70
2019-01-20T00:26:37.362Z,24.52
2019-01-20T00:29:07.001Z,31.83
2019-01-20T00:31:36.137Z,26.25
2019-01-20T00:34:05.417Z,26.77
2019-01-20T00:36:34.498Z,21.02
2019-01-20T00:39:05.040Z,25.50
2019-01-20T00:41:33.957Z,24.47
2019-01-20T00:44:03.246Z,22.80
2019-01-20T00:46:32.183Z,25.80
2019-01-20T00:49:01.118Z,22.35
2019-01-20T00:51:30.193Z,26.52
2019-01-20T00:53:59.656Z,23.15
2019-01-20T00:56:28.958Z,24.43
2019-01-20T00:58:57.993Z,20.92
2019-01-20T01:01:26.942Z,23.40
2019-01-20T01:03:55.991Z,27.25
2019-01-20T01:06:25.295Z,24.92
2019-01-20T01:08:54.307Z,23.60
2019-01-20T01:11:23.594Z,24.90
2019-01-20T01:13:52.598Z,25.75
2019-01-20T01:16:21.589Z,22.32
2019-01-20T01:18:50.654Z,22.50
2019-01-20T01:21:19.682Z,25.73
2019-01-20T01:23:48.694Z,27.70
2019-01-20T01:26:17.706Z,24.90
2019-01-20T01:29:06.102Z,22.07
2019-01-20T01:31:35.081Z,26.73
2019-01-20T01:34:04.098Z,22.62
2019-01-20T01:36:33.110Z,24.10
2019-01-20T01:39:02.117Z,30.62
2019-01-20T01:41:31.046Z,25.77
2019-01-20T01:44:00.190Z,24.20
2019-01-20T01:46:29.285Z,25.52
2019-01-20T01:48:58.293Z,25.57
2019-01-20T01:51:27.359Z,27.40
2019-01-20T01:53:56.365Z,27.35
2019-01-20T01:56:25.225Z,36.83
2019-01-20T01:58:54.237Z,47.95
2019-01-20T02:01:23.502Z,52.50
2019-01-20T02:03:52.522Z,52.78
2019-01-20T02:06:21.532Z,51.20
2019-01-20T02:08:50.468Z,44.63
2019-01-20T02:11:19.414Z,47.30
2019-01-20T02:13:48.463Z,42.43
2019-01-20T02:16:17.461Z,68.60
2019-01-20T02:18:46.521Z,54.20
2019-01-20T02:21:15.534Z,51.30
2019-01-20T02:23:44.550Z,61.42
2019-01-20T02:26:13.562Z,56.00
2019-01-20T02:28:42.746Z,55.50
2019-01-20T02:31:11.762Z,57.20
2019-01-20T02:33:40.816Z,53.10
2019-01-20T02:36:09.821Z,66.70
2019-01-20T02:38:39.070Z,67.87
2019-01-20T02:41:08.205Z,61.40
2019-01-20T02:43:37.397Z,69.87
2019-01-20T02:46:06.921Z,86.53
2019-01-20T02:48:35.756Z,84.45
2019-01-20T02:51:04.741Z,81.22
2019-01-20T02:53:33.689Z,97.22
2019-01-20T02:56:02.682Z,96.13
2019-01-20T02:58:31.601Z,85.80
2019-01-20T03:01:00.618Z,128.53
2019-01-20T03:03:29.458Z,70.45
2019-01-20T03:05:58.317Z,90.17
2019-01-20T03:08:27.230Z,94.67
2019-01-20T03:10:56.141Z,82.30
2019-01-20T03:13:25.065Z,77.47
2019-01-20T03:15:54.399Z,53.85
2019-01-20T03:18:23.306Z,67.67
2019-01-20T03:20:52.497Z,67.43
2019-01-20T03:23:21.802Z,87.60
2019-01-20T03:25:50.710Z,72.00
2019-01-20T03:28:19.614Z,72.27
2019-01-20T03:30:48.762Z,64.70
2019-01-20T03:33:17.682Z,62.80
2019-01-20T03:35:46.645Z,72.85
2019-01-20T03:38:15.556Z,51.83
2019-01-20T03:40:44.475Z,57.70
2019-01-20T03:43:13.601Z,53.90
2019-01-20T03:45:42.529Z,69.12
2019-01-20T03:48:11.505Z,45.65
2019-01-20T03:50:40.429Z,44.45
2019-01-20T03:53:09.410Z,50.08
2019-01-20T03:55:38.321Z,46.20
2019-01-20T03:58:07.305Z,53.57
2019-01-20T04:00:36.669Z,51.65
2019-01-20T04:03:05.961Z,47.65
2019-01-20T04:05:34.952Z,45.75
2019-01-20T04:08:03.866Z,39.70
2019-01-20T04:10:32.853Z,52.15
2019-01-20T04:13:02.062Z,49.63
2019-01-20T04:15:31.128Z,50.90
2019-01-20T04:18:00.127Z,49.55
2019-01-20T04:20:29.104Z,45.20
2019-01-20T04:22:58.314Z,38.90
2019-01-20T04:25:27.294Z,43.70
2019-01-20T04:27:56.162Z,42.03
2019-01-20T04:30:25.121Z,50.00
2019-01-20T04:32:54.040Z,40.30
2019-01-20T04:35:23.301Z,35.52
2019-01-20T04:37:52.247Z,41.13
2019-01-20T04:40:22.857Z,35.65
2019-01-20T04:42:51.783Z,34.73
2019-01-20T04:45:20.808Z,36.58
2019-01-20T04:47:49.807Z,35.40
2019-01-20T04:50:21.287Z,38.30
2019-01-20T04:52:50.281Z,32.80
2019-01-20T04:55:19.272Z,35.85
2019-01-20T04:57:53.497Z,34.58
2019-01-20T05:00:24.418Z,35.40
2019-01-20T05:02:53.413Z,34.10
2019-01-20T05:05:22.408Z,31.17
2019-01-20T05:07:51.397Z,34.27
2019-01-20T05:10:20.382Z,35.58
2019-01-20T05:12:49.309Z,30.27
2019-01-20T05:15:23.205Z,35.38
2019-01-20T05:17:52.127Z,31.48
2019-01-20T05:20:21.429Z,31.75
2019-01-20T05:22:50.457Z,30.00
2019-01-20T05:25:19.452Z,29.60
2019-01-20T05:27:48.389Z,32.30
2019-01-20T05:30:19.797Z,31.68
2019-01-20T05:32:48.729Z,39.92
2019-01-20T05:35:17.721Z,39.83
2019-01-20T05:37:46.661Z,39.48
2019-01-20T05:40:17.375Z,39.98
2019-01-20T05:42:47.009Z,39.35
2019-01-20T05:45:20.946Z,38.10
2019-01-20T05:47:50.029Z,40.20
2019-01-20T05:50:19.092Z,38.83
2019-01-20T05:52:48.308Z,37.45
2019-01-20T05:55:17.388Z,44.03
2019-01-20T05:57:46.585Z,35.73
2019-01-20T06:00:21.239Z,36.33
2019-01-20T06:02:50.288Z,35.20
2019-01-20T06:05:19.193Z,42.88
2019-01-20T06:07:48.195Z,44.70
2019-01-20T06:10:17.093Z,39.65
2019-01-20T06:12:53.649Z,39.48
2019-01-20T06:15:17.957Z,36.50
2019-01-20T06:17:46.937Z,36.30
2019-01-20T06:20:16.335Z,33.40
2019-01-20T06:22:45.309Z,30.82
2019-01-20T06:25:14.397Z,30.12
2019-01-20T06:27:43.670Z,31.23
2019-01-20T06:30:19.093Z,31.05
2019-01-20T06:32:48.090Z,36.88
2019-01-20T06:35:17.402Z,33.90
2019-01-20T06:37:46.334Z,32.83
2019-01-20T06:40:15.438Z,36.38
2019-01-20T06:42:44.429Z,33.33
2019-01-20T06:45:13.565Z,35.08
2019-01-20T06:47:42.557Z,34.67
2019-01-20T06:50:12.956Z,33.35
2019-01-20T06:52:41.929Z,37.33
2019-01-20T06:55:11.968Z,39.03
2019-01-20T06:57:41.406Z,36.25
2019-01-20T07:00:16.001Z,38.05
2019-01-20T07:02:45.640Z,37.40
2019-01-20T07:05:14.681Z,35.10
2019-01-20T07:07:43.772Z,35.88
2019-01-20T07:10:13.909Z,36.88
2019-01-20T07:12:42.818Z,33.13
2019-01-20T07:15:14.739Z,36.20
2019-01-20T07:17:43.681Z,39.98
2019-01-20T07:20:12.984Z,60.38
2019-01-20T07:22:42.186Z,57.20
2019-01-20T07:25:11.653Z,49.08
2019-01-20T07:27:40.569Z,50.47
2019-01-20T07:30:13.116Z,43.30
2019-01-20T07:32:42.030Z,34.67
2019-01-20T07:35:11.324Z,32.00
2019-01-20T07:37:40.300Z,31.35
2019-01-20T07:40:11.007Z,34.30
2019-01-20T07:42:39.925Z,35.80
2019-01-20T07:45:11.021Z,36.40
2019-01-20T07:47:40.101Z,39.40
2019-01-20T07:50:13.125Z,37.47
2019-01-20T07:52:41.981Z,33.90
2019-01-20T07:55:10.993Z,36.38
2019-01-20T07:57:40.045Z,35.70
2019-01-20T08:00:11.574Z,38.63
2019-01-20T08:02:40.809Z,43.68
2019-01-20T08:05:09.929Z,42.13
2019-01-20T08:07:38.862Z,39.15
2019-01-20T08:10:20.086Z,40.00
2019-01-20T08:12:49.084Z,47.98
2019-01-20T08:15:18.671Z,54.50
2019-01-20T08:17:47.593Z,51.48
2019-01-20T08:20:18.471Z,51.73
2019-01-20T08:22:47.802Z,52.40
2019-01-20T08:25:17.560Z,45.43
2019-01-20T08:27:46.557Z,36.23
2019-01-20T08:30:20.262Z,37.83
2019-01-20T08:32:49.169Z,39.30
2019-01-20T08:35:18.157Z,41.47
2019-01-20T08:37:47.108Z,44.95
2019-01-20T08:40:18.646Z,43.17
2019-01-20T08:42:47.550Z,42.03
2019-01-20T08:45:30.748Z,40.80
2019-01-20T08:48:03.933Z,39.10
2019-01-20T08:50:32.832Z,35.80
2019-01-20T08:53:01.772Z,39.75
2019-01-20T08:55:30.693Z,35.47
2019-01-20T08:57:59.729Z,37.28
2019-01-20T09:00:28.741Z,39.73
2019-01-20T09:02:57.994Z,38.65
2019-01-20T09:05:27.150Z,38.20
2019-01-20T09:07:56.145Z,39.80
2019-01-20T09:10:27.300Z,35.85
2019-01-20T09:12:58.945Z,38.60
2019-01-20T09:15:27.893Z,40.15
2019-01-20T09:17:56.924Z,37.48
2019-01-20T09:20:25.993Z,37.98
2019-01-20T09:22:55.189Z,36.77
2019-01-20T09:25:24.457Z,37.45
2019-01-20T09:27:53.302Z,36.40
2019-01-20T09:30:22.381Z,38.67
2019-01-20T09:32:51.375Z,38.67
2019-01-20T09:35:20.352Z,38.88
2019-01-20T09:37:49.281Z,46.35
2019-01-20T09:40:37.658Z,47.78
2019-01-20T09:43:06.577Z,39.00
2019-01-20T09:45:35.807Z,43.23
2019-01-20T09:48:05.537Z,38.10
2019-01-20T09:50:35.597Z,37.95
2019-01-20T09:53:04.589Z,42.80
2019-01-20T09:55:33.657Z,37.60
2019-01-20T09:58:02.796Z,38.60
2019-01-20T10:00:32.430Z,36.05
2019-01-20T10:03:01.452Z,38.30
2019-01-20T10:05:30.436Z,40.50
2019-01-20T10:07:59.725Z,40.92
2019-01-20T10:10:28.644Z,41.55
2019-01-20T10:12:57.623Z,37.80
2019-01-20T10:15:26.621Z,38.23
2019-01-20T10:17:55.607Z,38.47
2019-01-20T10:20:27.033Z,41.30
2019-01-20T10:22:56.358Z,39.08
2019-01-20T10:25:25.385Z,38.75
2019-01-20T10:27:54.751Z,41.30
2019-01-20T10:30:26.172Z,47.20
2019-01-20T10:32:55.149Z,42.07
2019-01-20T10:35:31.437Z,39.30
2019-01-20T10:38:03.472Z,41.02
2019-01-20T10:40:32.513Z,39.67
2019-01-20T10:43:01.420Z,43.60
2019-01-20T10:45:30.447Z,48.25
2019-01-20T10:47:59.364Z,51.15
2019-01-20T10:50:28.681Z,41.65
2019-01-20T10:52:57.673Z,45.05
2019-01-20T10:55:27.205Z,43.42
2019-01-20T10:57:56.193Z,45.90
2019-01-20T11:00:30.660Z,43.90
2019-01-20T11:02:59.576Z,39.90
2019-01-20T11:05:30.513Z,44.85
2019-01-20T11:07:59.409Z,45.23
2019-01-20T11:10:28.409Z,40.05
2019-01-20T11:12:57.413Z,46.88
2019-01-20T11:15:26.409Z,45.10
2019-01-20T11:17:55.322Z,42.80
2019-01-20T11:20:24.825Z,47.58
2019-01-20T11:22:54.682Z,45.05
2019-01-20T11:25:26.840Z,42.73
2019-01-20T11:27:55.784Z,41.58
2019-01-20T11:30:25.022Z,43.58
2019-01-20T11:32:53.997Z,37.83
2019-01-20T11:35:23.000Z,38.70
2019-01-20T11:37:51.901Z,43.98
2019-01-20T11:40:21.133Z,42.45
2019-01-20T11:42:50.037Z,43.30
2019-01-20T11:45:21.538Z,42.33
2019-01-20T11:47:50.705Z,43.52
2019-01-20T11:50:19.689Z,40.58
2019-01-20T11:52:48.672Z,43.35
2019-01-20T11:55:19.438Z,43.33
2019-01-20T11:57:48.617Z,38.63
2019-01-20T12:00:20.312Z,42.55
2019-01-20T12:02:49.284Z,44.42
2019-01-20T12:05:18.522Z,43.28
2019-01-20T12:07:47.826Z,42.95
2019-01-20T12:10:16.882Z,45.00
2019-01-20T12:12:50.386Z,42.95
2019-01-20T12:15:19.326Z,41.50
2019-01-20T12:17:48.611Z,42.55
2019-01-20T12:20:17.611Z,47.93
2019-01-20T12:22:46.800Z,45.38
2019-01-20T12:25:16.216Z,44.20
2019-01-20T12:27:45.498Z,45.52
2019-01-20T12:30:17.734Z,45.25
2019-01-20T12:32:46.722Z,40.63
2019-01-20T12:35:15.625Z,42.78
2019-01-20T12:37:44.608Z,45.95
2019-01-20T12:40:17.004Z,45.67
2019-01-20T12:42:45.993Z,42.10
2019-01-20T12:45:14.972Z,43.33
2019-01-20T12:47:43.896Z,41.13
2019-01-20T12:50:14.275Z,45.10
2019-01-20T12:52:43.405Z,41.45
2019-01-20T12:55:12.812Z,42.65
2019-01-20T12:57:42.085Z,51.28
2019-01-20T13:00:14.121Z,53.05
2019-01-20T13:02:43.249Z,41.58
2019-01-20T13:05:12.786Z,47.40
2019-01-20T13:07:41.713Z,42.57
2019-01-20T13:10:12.149Z,44.40
2019-01-20T13:12:41.147Z,47.13
2019-01-20T13:15:12.389Z,46.70
2019-01-20T13:17:41.431Z,49.93
2019-01-20T13:20:15.048Z,41.27
2019-01-20T13:22:44.008Z,35.37
2019-01-20T13:47:31.177Z,37.23
2019-01-20T13:50:00.370Z,44.00
2019-01-20T13:52:29.670Z,41.00
2019-01-20T13:54:58.593Z,44.17
2019-01-20T13:57:27.501Z,47.07
2019-01-20T13:59:56.420Z,48.03
2019-01-20T14:02:25.321Z,38.97
2019-01-20T14:04:54.313Z,44.07
2019-01-20T14:07:23.292Z,43.90
2019-01-20T14:09:52.437Z,46.63
2019-01-20T14:12:21.605Z,54.63
2019-01-20T14:14:54.013Z,62.50
2019-01-20T14:17:21.389Z,44.03
2019-01-20T14:19:50.670Z,41.87
2019-01-20T14:22:19.573Z,42.97
2019-01-20T14:24:48.412Z,45.17
2019-01-20T14:27:17.323Z,37.80
2019-01-20T14:29:46.505Z,44.67
2019-01-20T14:32:15.416Z,42.23
2019-01-20T14:34:44.617Z,43.40
2019-01-20T14:37:13.530Z,50.43
2019-01-20T14:39:42.367Z,48.63
2019-01-20T14:42:12.414Z,42.27
2019-01-20T14:44:41.409Z,39.60
2019-01-20T14:47:10.385Z,36.60
2019-01-20T14:49:39.220Z,49.63
2019-01-20T14:52:08.202Z,43.63
2019-01-20T14:54:37.115Z,46.17
2019-01-20T14:57:05.953Z,55.73
2019-01-20T14:59:34.789Z,41.90
2019-01-20T15:02:03.692Z,40.50
2019-01-20T15:04:32.537Z,47.30
2019-01-20T15:07:01.885Z,44.43
2019-01-20T15:09:30.737Z,51.93
2019-01-20T15:11:59.644Z,45.00
2019-01-20T15:14:28.769Z,44.93
2019-01-20T15:16:57.676Z,48.20
2019-01-20T15:19:26.590Z,41.43
2019-01-20T15:21:55.493Z,52.07
2019-01-20T15:24:25.104Z,55.87
2019-01-20T15:26:54.615Z,54.83
2019-01-20T15:29:23.589Z,46.07
2019-01-20T15:31:52.505Z,42.70
2019-01-20T15:34:21.337Z,53.60
2019-01-20T15:36:50.523Z,45.57
2019-01-20T15:39:19.481Z,54.33
2019-01-20T15:41:48.401Z,44.37
2019-01-20T15:44:17.244Z,47.90
2019-01-20T15:46:46.105Z,65.67
2019-01-20T15:49:15.306Z,49.03
2019-01-20T15:51:44.177Z,52.97
2019-01-20T15:54:13.265Z,40.33
2019-01-20T15:56:42.561Z,49.20
2019-01-20T15:59:11.405Z,42.30
2019-01-20T16:01:40.400Z,48.77
2019-01-20T16:04:09.389Z,46.20
2019-01-20T16:06:38.404Z,52.60
2019-01-20T16:09:08.993Z,57.07
2019-01-20T16:11:37.909Z,49.90
2019-01-20T16:14:07.240Z,50.60
2019-01-20T16:16:36.229Z,50.47
2019-01-20T16:19:05.334Z,58.90
2019-01-20T16:21:34.248Z,50.10
2019-01-20T16:24:03.149Z,54.97
2019-01-20T16:26:32.095Z,57.17
2019-01-20T16:29:01.113Z,58.77
2019-01-20T16:31:30.112Z,67.10
2019-01-20T16:33:58.933Z,68.00
2019-01-20T16:36:27.845Z,59.00
2019-01-20T16:38:56.685Z,58.67
2019-01-20T16:41:25.861Z,61.87
2019-01-20T16:43:54.701Z,63.13
2019-01-20T16:46:23.734Z,60.30
2019-01-20T16:48:53.024Z,60.53
2019-01-20T16:51:22.146Z,63.33
2019-01-20T16:53:51.173Z,57.03
2019-01-20T16:56:20.424Z,54.43
2019-01-20T16:58:51.388Z,62.67
2019-01-20T17:01:19.885Z,59.77
2019-01-20T17:03:49.148Z,61.80
2019-01-20T17:06:18.367Z,61.07
2019-01-20T17:08:47.360Z,55.37
2019-01-20T17:11:16.256Z,61.93
2019-01-20T17:13:45.277Z,57.47
2019-01-20T17:16:14.261Z,56.93
2019-01-20T17:18:43.253Z,63.20
2019-01-20T17:21:12.225Z,64.67
2019-01-20T17:23:41.381Z,63.10
2019-01-20T17:26:10.219Z,60.80
2019-01-20T17:28:39.097Z,52.90
2019-01-20T17:31:08.080Z,53.53
2019-01-20T17:33:36.911Z,59.10
2019-01-20T17:36:05.932Z,70.30
2019-01-20T17:38:35.133Z,59.37
2019-01-20T17:41:04.108Z,64.07
2019-01-20T17:43:33.096Z,67.47
2019-01-20T17:46:02.078Z,62.77
2019-01-20T17:48:31.317Z,56.43
2019-01-20T17:51:00.333Z,69.10
2019-01-20T17:53:29.530Z,56.40
2019-01-20T17:55:58.433Z,51.90
2019-01-20T17:58:27.421Z,82.67
2019-01-20T18:01:00.212Z,72.00
2019-01-20T18:03:29.121Z,67.30
2019-01-20T18:05:58.096Z,66.63
2019-01-20T18:08:27.085Z,63.20
2019-01-20T18:10:56.654Z,68.43
2019-01-20T18:13:25.569Z,63.03
2019-01-20T18:15:54.971Z,77.20
2019-01-20T18:18:24.155Z,69.40
2019-01-20T18:20:53.053Z,65.53
2019-01-20T18:23:21.964Z,70.63
2019-01-20T18:25:51.213Z,59.57
2019-01-20T18:28:20.509Z,65.77
2019-01-20T18:30:49.417Z,71.30
2019-01-20T18:33:18.596Z,66.87
2019-01-20T18:35:47.506Z,75.73
2019-01-20T18:38:16.340Z,63.20
2019-01-20T18:40:45.248Z,70.80
2019-01-20T18:43:14.358Z,81.80
2019-01-20T18:45:43.706Z,69.87
2019-01-20T18:48:12.681Z,69.73
2019-01-20T18:50:41.850Z,75.63
2019-01-20T18:53:10.901Z,75.90
2019-01-20T18:55:39.820Z,72.40
2019-01-20T18:58:08.793Z,81.70
2019-01-20T19:00:43.717Z,76.50
2019-01-20T19:03:12.725Z,61.00
2019-01-20T19:05:41.638Z,71.27
2019-01-20T19:08:10.553Z,69.13
2019-01-20T19:10:39.541Z,72.80
2019-01-20T19:13:08.521Z,67.70
2019-01-20T19:15:37.445Z,70.07
2019-01-20T19:18:06.424Z,62.00
2019-01-20T19:20:35.345Z,69.40
2019-01-20T19:23:04.350Z,69.03
2019-01-20T19:25:35.477Z,70.00
2019-01-20T19:28:05.029Z,64.80
2019-01-20T19:30:34.585Z,78.63
2019-01-20T19:33:03.569Z,65.47
2019-01-20T19:35:32.823Z,82.43
2019-01-20T19:38:01.815Z,71.17
2019-01-20T19:40:31.262Z,70.90
2019-01-20T19:43:00.257Z,64.03
2019-01-20T19:45:29.426Z,63.73
2019-01-20T19:47:59.009Z,77.10
2019-01-20T19:50:30.925Z,53.80
2019-01-20T19:53:00.373Z,62.50
2019-01-20T19:55:31.181Z,63.63
2019-01-20T19:58:00.408Z,66.13
2019-01-20T20:00:30.838Z,61.50
2019-01-20T20:03:00.134Z,67.37
2019-01-20T20:05:29.905Z,62.67
2019-01-20T20:07:59.034Z,72.80
2019-01-20T20:10:28.601Z,63.33
2019-01-20T20:12:58.324Z,68.53
2019-01-20T20:15:27.927Z,64.80
2019-01-20T20:17:57.017Z,54.03
2019-01-20T20:20:25.996Z,58.57
2019-01-20T20:22:54.983Z,60.17
2019-01-20T20:25:25.179Z,66.83
2019-01-20T20:27:54.300Z,69.23
2019-01-20T20:30:42.418Z,68.17
2019-01-20T20:33:11.603Z,71.73
2019-01-20T20:35:40.815Z,72.80
2019-01-20T20:38:09.809Z,72.73
2019-01-20T20:40:38.805Z,68.00
2019-01-20T20:43:08.173Z,61.07
2019-01-20T20:45:37.082Z,70.30
2019-01-20T20:48:06.718Z,65.03
2019-01-20T20:50:35.973Z,62.07
2019-01-20T20:53:05.196Z,62.70
2019-01-20T20:55:34.398Z,57.30
2019-01-20T20:58:03.666Z,62.20
2019-01-20T21:00:36.096Z,65.73
2019-01-20T21:03:11.862Z,55.83
2019-01-20T21:05:40.761Z,57.13
2019-01-20T21:08:09.765Z,56.93
2019-01-20T21:10:38.684Z,66.50
2019-01-20T21:13:07.673Z,48.80
2019-01-20T21:15:36.573Z,49.37
2019-01-20T21:18:05.569Z,52.70
2019-01-20T21:20:35.042Z,62.40
2019-01-20T21:23:04.053Z,56.43
2019-01-20T21:25:33.037Z,50.97
2019-01-20T21:28:01.957Z,55.90
2019-01-20T21:30:30.861Z,57.67
2019-01-20T21:33:00.981Z,58.50
2019-01-20T21:35:30.245Z,60.67
2019-01-20T21:38:06.573Z,58.80
2019-01-20T21:40:30.246Z,58.23
2019-01-20T21:42:59.574Z,58.47
2019-01-20T21:45:28.753Z,48.63
2019-01-20T21:47:58.427Z,53.40
2019-01-20T21:50:29.909Z,54.60
2019-01-20T21:52:59.315Z,46.00
2019-01-20T21:55:28.640Z,59.17
2019-01-20T21:57:57.635Z,59.07
2019-01-20T22:00:27.894Z,60.43
2019-01-20T22:02:56.882Z,53.73
2019-01-20T22:05:25.809Z,58.30
2019-01-20T22:07:55.110Z,69.58
2019-01-20T22:10:24.133Z,71.15
2019-01-20T22:12:53.713Z,53.77
2019-01-20T22:15:22.797Z,55.80
2019-01-20T22:17:52.069Z,61.77
2019-01-20T22:20:22.486Z,47.37
2019-01-20T22:22:52.010Z,60.48
2019-01-20T22:25:20.985Z,63.43
2019-01-20T22:27:50.589Z,51.73
2019-01-20T22:30:21.629Z,48.80
2019-01-20T22:32:50.545Z,51.00
2019-01-20T22:35:19.620Z,50.17
2019-01-20T22:37:48.693Z,53.63
2019-01-20T22:40:17.992Z,52.07
2019-01-20T22:42:46.954Z,51.13
2019-01-20T22:45:18.251Z,47.73
2019-01-20T22:47:47.494Z,50.83
2019-01-20T22:50:16.512Z,47.23
2019-01-20T22:52:45.537Z,47.63
2019-01-20T22:55:15.077Z,54.73
2019-01-20T22:57:44.509Z,50.70
2019-01-20T23:00:24.488Z,44.70
2019-01-20T23:02:53.470Z,47.00
2019-01-20T23:05:22.453Z,49.80
2019-01-20T23:07:51.429Z,46.23
2019-01-20T23:10:20.490Z,44.57
2019-01-20T23:12:49.401Z,48.47
2019-01-20T23:15:18.241Z,54.50
2019-01-20T23:17:47.213Z,50.27
2019-01-20T23:20:16.401Z,46.73
2019-01-20T23:22:45.305Z,47.37
2019-01-20T23:25:14.289Z,53.93
2019-01-20T23:27:43.296Z,52.57
2019-01-20T23:30:12.980Z,47.70
2019-01-20T23:32:41.954Z,56.03
2019-01-20T23:35:10.957Z,50.47
2019-01-20T23:37:39.854Z,51.33
2019-01-20T23:40:09.670Z,47.50
2019-01-20T23:42:38.941Z,43.73
2019-01-20T23:45:09.645Z,44.17
2019-01-20T23:47:38.548Z,53.50
2019-01-20T23:50:09.198Z,48.93
2019-01-20T23:52:38.158Z,41.77
2019-01-20T23:55:07.882Z,53.40
2019-01-20T23:57:36.865Z,59.42
